createdAt,value
2023-12-01T09:52:59.323Z,0
2023-12-01T10:02:59.645Z,-0.2
2023-12-01T10:33:00.177Z,-0.1
2023-12-01T10:53:00.551Z,-0.2
2023-12-01T11:03:00.890Z,-0.3
2023-12-01T11:13:00.976Z,-0.1
2023-12-01T11:33:01.552Z,-0.1
2023-12-01T11:53:01.822Z,-0.1
2023-12-01T12:03:02.076Z,0
2023-12-01T12:13:02.305Z,0
2023-12-01T12:23:02.528Z,-0.1
2023-12-01T12:33:02.842Z,-0.2
2023-12-01T12:43:02.892Z,-0.2
2023-12-01T12:53:03.153Z,-0.2
2023-12-01T13:03:03.444Z,-0.3
2023-12-01T13:13:03.585Z,-0.2
2023-12-01T13:23:03.727Z,-0.3
2023-12-01T13:33:04.001Z,-0.3
2023-12-01T13:43:04.229Z,-0.3
2023-12-01T13:53:04.372Z,-0.2
2023-12-01T14:03:07.457Z,-0.2
2023-12-01T14:13:04.871Z,-0.2
2023-12-01T14:23:05.003Z,-0.2
2023-12-01T14:33:05.333Z,-0.1
2023-12-01T14:43:05.427Z,-0.2
2023-12-01T15:03:05.851Z,-0.2
2023-12-01T15:13:06.058Z,-0.1
2023-12-01T15:23:06.293Z,-0.3
2023-12-01T15:33:06.527Z,-0.2
2023-12-01T15:43:06.683Z,-0.3
2023-12-01T15:53:06.941Z,-0.2
2023-12-01T16:13:07.345Z,-0.3
2023-12-01T16:23:10.084Z,-0.3
2023-12-01T16:33:07.815Z,-0.3
2023-12-01T16:43:07.962Z,-0.4
2023-12-01T16:53:08.158Z,-0.6
2023-12-01T17:03:08.441Z,-0.6
2023-12-01T17:13:08.586Z,-0.7
2023-12-01T17:23:08.798Z,-0.5
2023-12-01T17:33:09.120Z,-0.6
2023-12-01T17:43:09.294Z,-0.7
2023-12-01T17:53:09.443Z,-0.7
2023-12-01T18:03:09.672Z,-0.9
2023-12-01T18:13:09.877Z,-1
2023-12-01T18:23:10.084Z,-1
2023-12-01T18:33:10.344Z,-1
2023-12-01T19:03:11.119Z,-1.1
2023-12-01T19:13:11.124Z,-1
2023-12-01T19:23:11.349Z,-1.2
2023-12-01T19:43:11.773Z,-1.2
2023-12-01T19:53:11.970Z,-1.2
2023-12-01T20:03:12.262Z,-1.1
2023-12-01T20:13:12.448Z,-1
2023-12-01T20:23:12.618Z,-1
2023-12-01T20:33:12.946Z,-1.1
2023-12-01T20:43:13.049Z,-1.1
2023-12-01T20:53:13.299Z,-1.1
2023-12-01T21:03:13.513Z,-1.1
2023-12-01T21:13:13.704Z,-1
2023-12-01T21:23:13.924Z,-1
2023-12-01T21:43:14.339Z,-1.1
2023-12-01T21:53:14.560Z,-1.1
2023-12-01T22:03:14.759Z,-1
2023-12-01T22:13:15.019Z,-1
2023-12-01T22:23:15.183Z,-1.1
2023-12-01T22:33:15.432Z,-1.1
2023-12-01T22:53:15.819Z,-1.1
2023-12-01T23:13:16.246Z,-1.1
2023-12-01T23:23:16.497Z,-1.2
2023-12-01T23:33:16.877Z,-1.1
2023-12-01T23:43:16.885Z,-1.1
2023-12-01T23:53:17.107Z,-1.2
